< < Back
Terminal Aerodrome Forecast


Current Version              Previous Versions:   1  2  3  4  5  6  7  8  9  

Terminal Aerodrome Forecast

778
FTUS42 KCHS 302332
TAFCHS
TAF
KCHS 302332Z 3100/3124 36007KT P6SM FEW250
     FM311200 02007KT P6SM SCT250=

Latest METAR

697
SAUS80 KWBC 310000
MTRCHS
METAR KCHS 302356Z 34004KT 10SM FEW200 08/M04 A3023 RMK AO2 SLP235
T00781044 10150 20072 53030


USA.gov is the U.S. government's official web portal to all federal, state and local government web resources and services.